Time;durP1;ratioP1;P1;durP2;ratioP2;P2;SDS_P1;SDS_P2;PMS_P1;PMS_P2;Temp;Humidity;BMP_temperature;BMP_pressure;BME280_temperature;BME280_humidity;BME280_pressure;Samples;Min_cycle;Max_cycle;Signal;HPM_P1;HPM_P2
2023/06/19 00:01:22;;;;;;;5.43;3.30;;;21.50;82.90;;;;;;5027155;28;20044;-72
2023/06/19 00:03:47;;;;;;;6.38;3.45;;;21.50;82.80;;;;;;5026665;28;20498;-72
2023/06/19 00:06:13;;;;;;;5.70;3.30;;;21.50;82.80;;;;;;5025863;28;20114;-73
2023/06/19 00:08:41;;;;;;;8.15;3.67;;;21.40;82.50;;;;;;5010320;28;20045;-72
2023/06/19 00:11:07;;;;;;;6.85;4.00;;;21.50;82.40;;;;;;5023494;28;20340;-73
2023/06/19 00:13:33;;;;;;;6.43;3.55;;;21.50;82.50;;;;;;5026481;28;20045;-72
2023/06/19 00:16:00;;;;;;;6.18;3.45;;;21.40;82.40;;;;;;5023458;28;20399;-73
2023/06/19 00:18:26;;;;;;;6.53;3.40;;;21.40;82.20;;;;;;5026413;28;20095;-72
2023/06/19 00:20:54;;;;;;;6.07;3.15;;;21.40;82.40;;;;;;5010258;28;20079;-72
2023/06/19 00:23:19;;;;;;;7.20;3.60;;;21.40;82.40;;;;;;5025799;28;20079;-73
2023/06/19 00:25:45;;;;;;;7.97;3.90;;;21.40;82.30;;;;;;5042074;28;20085;-72
2023/06/19 00:28:13;;;;;;;5.13;3.00;;;21.40;82.30;;;;;;5011003;28;20091;-72
2023/06/19 00:30:39;;;;;;;7.10;4.13;;;21.40;82.40;;;;;;5045736;28;20029;-72
2023/06/19 00:33:05;;;;;;;5.90;3.05;;;21.40;82.20;;;;;;5029434;28;20032;-72
2023/06/19 00:35:31;;;;;;;7.78;3.85;;;21.40;82.00;;;;;;5029732;28;20527;-72
2023/06/19 00:38:00;;;;;;;6.65;3.10;;;21.40;81.60;;;;;;5025330;28;20033;-72
2023/06/19 00:40:31;;;;;;;5.63;3.45;;;21.40;81.40;;;;;;5039037;28;20047;-72
2023/06/19 00:42:57;;;;;;;6.53;3.65;;;21.40;81.20;;;;;;5041850;28;20425;-72
2023/06/19 00:45:24;;;;;;;5.57;3.38;;;21.40;81.10;;;;;;5022331;28;20356;-72
2023/06/19 00:47:54;;;;;;;8.07;3.50;;;21.40;80.90;;;;;;5019345;28;20464;-72
2023/06/19 00:50:21;;;;;;;6.78;3.70;;;21.40;80.90;;;;;;5021598;28;20474;-72
2023/06/19 00:52:47;;;;;;;7.15;3.50;;;21.40;80.70;;;;;;5009597;28;20086;-73
2023/06/19 00:55:14;;;;;;;5.32;3.45;;;21.30;80.70;;;;;;5023734;28;20061;-73
2023/06/19 00:57:40;;;;;;;6.05;3.72;;;21.30;80.80;;;;;;5023699;28;20028;-73
2023/06/19 01:00:07;;;;;;;6.72;3.63;;;21.30;80.80;;;;;;5024463;28;20044;-73
2023/06/19 01:02:33;;;;;;;7.95;3.50;;;21.30;80.60;;;;;;5023768;28;20045;-73
2023/06/19 01:04:59;;;;;;;7.03;2.90;;;21.30;80.40;;;;;;5023409;28;20099;-73
2023/06/19 01:07:45;;;;;;;6.97;3.95;;;21.30;80.20;;;;;;5041260;28;20498;-72
2023/06/19 01:10:18;;;;;;;8.02;3.63;;;21.30;79.30;;;;;;4972860;28;20060;-73
2023/06/19 01:12:59;;;;;;;6.50;3.03;;;21.30;79.70;;;;;;5021260;28;20071;-73
2023/06/19 01:15:25;;;;;;;5.72;3.20;;;21.30;79.30;;;;;;5041486;28;20075;-73
2023/06/19 01:17:53;;;;;;;6.00;3.45;;;21.30;79.30;;;;;;5021079;28;20052;-73
2023/06/19 01:20:18;;;;;;;7.60;3.65;;;21.30;79.30;;;;;;5025588;28;20041;-73
2023/06/19 01:22:44;;;;;;;6.82;3.80;;;21.20;79.30;;;;;;5022533;28;20431;-73
2023/06/19 01:25:13;;;;;;;5.90;3.58;;;21.30;79.10;;;;;;5025555;28;20072;-73
2023/06/19 01:27:39;;;;;;;6.57;3.80;;;21.30;79.70;;;;;;5018632;28;20041;-73
2023/06/19 01:30:06;;;;;;;6.57;3.90;;;21.30;78.90;;;;;;5013684;28;20386;-73
2023/06/19 01:32:56;;;;;;;6.28;3.38;;;21.30;79.00;;;;;;5028136;28;20025;-73
2023/06/19 01:35:27;;;;;;;8.77;3.38;;;21.30;78.90;;;;;;5027632;28;20422;-73
2023/06/19 01:37:54;;;;;;;5.35;3.22;;;21.20;78.90;;;;;;5026395;28;20442;-74
2023/06/19 01:40:25;;;;;;;5.88;3.40;;;21.20;78.80;;;;;;5046174;28;20037;-74
2023/06/19 01:42:52;;;;;;;8.15;3.40;;;21.20;78.80;;;;;;5028040;28;20402;-73
2023/06/19 01:45:18;;;;;;;5.70;3.25;;;21.30;78.90;;;;;;5010840;28;20053;-73
2023/06/19 01:47:44;;;;;;;6.68;3.63;;;21.20;78.80;;;;;;5043287;28;20376;-73
2023/06/19 01:50:10;;;;;;;6.22;3.17;;;21.20;78.80;;;;;;5027807;28;20387;-73
2023/06/19 01:52:38;;;;;;;5.85;3.22;;;21.20;78.80;;;;;;5027980;28;20044;-73
2023/06/19 01:55:04;;;;;;;5.80;3.30;;;21.20;78.80;;;;;;5008071;28;20147;-73
2023/06/19 01:57:30;;;;;;;5.47;3.15;;;21.20;78.90;;;;;;5027936;28;20043;-73
2023/06/19 01:59:56;;;;;;;7.57;3.80;;;21.20;79.00;;;;;;5026241;28;20510;-73
2023/06/19 02:02:22;;;;;;;6.90;3.72;;;21.20;79.00;;;;;;5046493;28;20041;-73
2023/06/19 02:04:47;;;;;;;6.38;3.20;;;21.20;79.90;;;;;;5027001;28;20040;-73
2023/06/19 02:07:13;;;;;;;7.28;3.63;;;21.20;79.50;;;;;;5044706;28;20045;-73
2023/06/19 02:09:39;;;;;;;5.53;3.10;;;21.10;79.50;;;;;;5044250;28;20493;-73
2023/06/19 02:12:05;;;;;;;5.57;3.28;;;21.10;79.50;;;;;;5025684;28;20041;-74
2023/06/19 02:14:31;;;;;;;7.82;3.30;;;21.10;79.60;;;;;;5027098;28;20091;-73
2023/06/19 02:16:56;;;;;;;7.00;3.70;;;21.10;79.50;;;;;;5027119;28;20454;-73
2023/06/19 02:19:22;;;;;;;6.75;3.30;;;21.10;79.50;;;;;;5008268;28;20127;-73
2023/06/19 02:21:47;;;;;;;5.28;3.33;;;21.10;79.50;;;;;;5043818;28;20397;-73
2023/06/19 02:24:13;;;;;;;6.15;3.67;;;21.10;79.60;;;;;;5023617;28;20041;-73
2023/06/19 02:26:39;;;;;;;5.68;2.97;;;21.20;79.70;;;;;;5008522;28;20470;-73
2023/06/19 02:29:04;;;;;;;5.18;3.10;;;21.10;79.70;;;;;;5027035;28;21779;-73
2023/06/19 02:31:31;;;;;;;5.13;3.33;;;21.10;79.80;;;;;;5024979;28;20127;-73
2023/06/19 02:33:56;;;;;;;6.65;3.20;;;21.10;80.00;;;;;;5026115;28;20363;-73
2023/06/19 02:36:22;;;;;;;5.20;3.00;;;21.10;80.00;;;;;;5045901;28;20041;-73
2023/06/19 02:38:51;;;;;;;5.90;3.38;;;21.10;80.20;;;;;;5022580;28;20461;-73
2023/06/19 02:41:18;;;;;;;6.22;3.00;;;21.10;80.50;;;;;;5010982;28;20109;-73
2023/06/19 02:43:46;;;;;;;5.88;3.30;;;21.10;80.60;;;;;;5024954;28;20144;-73
2023/06/19 02:46:12;;;;;;;6.05;3.60;;;21.10;80.70;;;;;;5027357;28;20406;-73
2023/06/19 02:48:38;;;;;;;5.70;3.00;;;21.10;80.70;;;;;;5041983;28;20049;-73
2023/06/19 02:51:03;;;;;;;4.25;2.40;;;21.10;80.70;;;;;;5007390;28;20045;-74
2023/06/19 02:53:29;;;;;;;6.63;3.38;;;21.10;80.70;;;;;;5044008;28;20087;-73
2023/06/19 02:55:54;;;;;;;5.55;3.33;;;21.10;80.80;;;;;;5026122;28;20032;-73
2023/06/19 02:58:20;;;;;;;5.97;3.08;;;21.10;81.00;;;;;;5026939;28;20037;-73
2023/06/19 03:00:46;;;;;;;6.85;3.28;;;21.10;81.20;;;;;;5044757;28;20025;-73
2023/06/19 03:03:12;;;;;;;5.13;3.25;;;21.20;81.40;;;;;;5007183;28;20037;-73
2023/06/19 03:05:38;;;;;;;5.15;3.15;;;21.10;81.60;;;;;;5025657;28;20047;-73
2023/06/19 03:08:04;;;;;;;6.18;3.40;;;21.20;81.90;;;;;;5027058;28;20045;-73
2023/06/19 03:10:30;;;;;;;6.25;3.28;;;21.10;82.00;;;;;;5026648;28;20048;-73
2023/06/19 03:12:58;;;;;;;6.40;3.28;;;21.10;82.20;;;;;;5031452;28;20040;-73
2023/06/19 03:15:23;;;;;;;5.72;3.22;;;21.10;82.30;;;;;;5030248;28;20049;-73
2023/06/19 03:17:49;;;;;;;5.90;3.53;;;21.10;82.60;;;;;;5047447;28;20136;-73
2023/06/19 03:20:15;;;;;;;5.22;3.10;;;21.10;82.80;;;;;;5047347;28;20518;-73
2023/06/19 03:22:42;;;;;;;5.22;3.10;;;21.10;83.00;;;;;;4994432;28;20162;-73
2023/06/19 03:25:08;;;;;;;5.22;3.00;;;21.10;83.20;;;;;;5023080;28;20048;-73
2023/06/19 03:27:34;;;;;;;5.32;3.00;;;21.10;83.40;;;;;;5025631;28;21216;-73
2023/06/19 03:30:00;;;;;;;5.55;3.15;;;21.10;83.60;;;;;;5025801;28;20060;-73
2023/06/19 03:32:26;;;;;;;6.47;2.95;;;21.10;83.80;;;;;;5021321;28;20406;-73
2023/06/19 03:34:51;;;;;;;5.60;3.30;;;21.00;83.90;;;;;;5024991;28;20060;-73
2023/06/19 03:37:17;;;;;;;6.10;3.17;;;21.00;84.20;;;;;;5023176;28;20660;-73
2023/06/19 03:39:43;;;;;;;5.55;3.10;;;21.00;84.40;;;;;;5040835;28;20048;-73
2023/06/19 03:42:08;;;;;;;5.85;3.30;;;21.00;84.70;;;;;;5044058;28;20040;-73
2023/06/19 03:44:34;;;;;;;5.47;2.80;;;21.00;85.00;;;;;;5043110;28;20033;-73
2023/06/19 03:46:59;;;;;;;5.97;3.28;;;21.00;85.50;;;;;;5044202;28;20499;-73
2023/06/19 03:49:25;;;;;;;3.72;2.30;;;21.00;85.70;;;;;;5024333;28;20048;-73
2023/06/19 03:51:51;;;;;;;4.93;2.67;;;21.00;86.00;;;;;;5043121;28;20056;-73
2023/06/19 03:54:17;;;;;;;4.72;2.58;;;21.00;86.30;;;;;;5042121;28;20041;-73
2023/06/19 03:56:43;;;;;;;4.22;2.45;;;21.00;86.60;;;;;;5022589;28;20126;-73
2023/06/19 03:59:08;;;;;;;4.72;2.40;;;21.00;86.80;;;;;;5025005;28;20078;-73
2023/06/19 04:01:34;;;;;;;4.60;2.58;;;21.00;87.10;;;;;;5025142;28;20403;-73
2023/06/19 04:03:59;;;;;;;4.57;2.22;;;21.00;87.40;;;;;;5040102;28;20048;-73
2023/06/19 04:06:25;;;;;;;4.80;2.65;;;21.00;87.90;;;;;;5009495;28;20131;-72
2023/06/19 04:08:52;;;;;;;4.07;2.00;;;21.10;88.20;;;;;;5024009;28;20037;-73
2023/06/19 04:11:17;;;;;;;3.83;1.80;;;21.00;88.50;;;;;;5008916;28;20467;-73
2023/06/19 04:13:43;;;;;;;4.18;1.75;;;21.00;89.10;;;;;;5006429;28;20107;-73
2023/06/19 04:16:08;;;;;;;7.65;1.90;;;21.00;89.50;;;;;;5025220;28;20060;-73
2023/06/19 04:18:34;;;;;;;3.13;1.75;;;20.90;89.90;;;;;;5023271;28;20076;-73
2023/06/19 04:21:00;;;;;;;3.47;1.50;;;20.90;90.20;;;;;;5024104;28;20037;-73
2023/06/19 04:23:26;;;;;;;3.05;1.45;;;20.90;90.40;;;;;;5026302;28;20543;-73
2023/06/19 04:25:51;;;;;;;4.07;1.83;;;20.90;90.60;;;;;;5009070;28;20045;-73
2023/06/19 04:28:17;;;;;;;2.55;1.25;;;20.80;90.80;;;;;;5007971;28;20049;-73
2023/06/19 04:30:42;;;;;;;3.22;1.65;;;20.80;91.00;;;;;;5007436;28;20037;-73
2023/06/19 04:33:08;;;;;;;3.38;1.55;;;20.80;91.10;;;;;;5045468;28;20405;-73
2023/06/19 04:35:39;;;;;;;2.38;1.15;;;20.80;91.30;;;;;;5026965;28;20033;-73
2023/06/19 04:38:08;;;;;;;3.15;1.30;;;20.80;91.60;;;;;;5042572;28;20044;-73
2023/06/19 04:40:34;;;;;;;3.15;1.50;;;20.80;91.80;;;;;;5043228;28;20052;-73
2023/06/19 04:43:02;;;;;;;6.88;1.60;;;20.70;91.90;;;;;;5024605;28;20029;-73
2023/06/19 04:45:28;;;;;;;3.63;1.30;;;20.70;92.20;;;;;;5021352;28;20037;-73
2023/06/19 04:47:53;;;;;;;4.63;1.42;;;20.80;92.30;;;;;;5024130;28;20040;-73
2023/06/19 04:50:20;;;;;;;4.32;1.40;;;20.80;92.40;;;;;;5005471;28;20478;-73
2023/06/19 04:52:47;;;;;;;2.97;1.30;;;20.70;92.60;;;;;;5025372;28;20051;-73
2023/06/19 04:55:12;;;;;;;3.05;1.55;;;20.80;92.80;;;;;;5025009;28;20541;-72
2023/06/19 04:57:38;;;;;;;2.00;1.05;;;20.70;92.90;;;;;;5024800;28;20037;-73
2023/06/19 05:00:09;;;;;;;3.88;1.30;;;20.70;93.10;;;;;;5008842;28;20160;-73
2023/06/19 05:02:35;;;;;;;2.60;1.50;;;20.70;93.30;;;;;;5006126;28;20033;-73
2023/06/19 05:05:03;;;;;;;3.22;1.25;;;20.60;93.40;;;;;;5022815;28;20048;-73
2023/06/19 05:07:32;;;;;;;2.92;1.40;;;20.70;93.50;;;;;;5022579;28;20044;-73
2023/06/19 05:09:58;;;;;;;3.35;1.60;;;20.70;93.80;;;;;;5022665;28;20119;-73
2023/06/19 05:12:24;;;;;;;3.25;1.35;;;20.70;93.80;;;;;;5008056;28;20513;-73
2023/06/19 05:14:49;;;;;;;3.78;1.52;;;20.70;94.00;;;;;;5021405;28;20033;-73
2023/06/19 05:17:15;;;;;;;3.45;1.73;;;20.60;94.20;;;;;;5023594;28;20445;-73
2023/06/19 05:19:41;;;;;;;3.85;1.70;;;20.60;94.40;;;;;;5023312;28;20135;-73
2023/06/19 05:22:06;;;;;;;3.30;1.58;;;20.60;94.50;;;;;;5041440;28;20064;-73
2023/06/19 05:24:33;;;;;;;2.97;1.27;;;20.60;94.70;;;;;;5015168;28;20054;-73
2023/06/19 05:26:58;;;;;;;2.97;1.48;;;20.60;94.80;;;;;;5004100;28;20081;-73
2023/06/19 05:29:24;;;;;;;3.58;1.67;;;20.50;94.90;;;;;;5005726;28;20474;-73
2023/06/19 05:31:50;;;;;;;4.40;1.50;;;20.50;95.20;;;;;;5001912;28;20152;-73
2023/06/19 05:34:16;;;;;;;3.17;1.30;;;20.50;95.30;;;;;;4985451;28;20224;-73
2023/06/19 05:36:44;;;;;;;3.20;1.55;;;20.60;95.40;;;;;;5000545;28;20491;-73
2023/06/19 05:39:10;;;;;;;4.03;1.60;;;20.60;95.80;;;;;;5003855;28;20041;-73
2023/06/19 05:41:36;;;;;;;3.08;1.67;;;20.70;95.70;;;;;;4985921;28;20420;-73
2023/06/19 05:44:02;;;;;;;3.25;1.73;;;20.70;95.70;;;;;;5000821;28;20360;-73
2023/06/19 05:46:27;;;;;;;3.80;1.73;;;20.80;95.90;;;;;;5000638;28;20037;-73
2023/06/19 05:48:54;;;;;;;3.35;1.60;;;20.70;96.00;;;;;;5000683;28;20470;-73
2023/06/19 05:51:20;;;;;;;3.88;1.85;;;20.80;96.20;;;;;;4987658;28;20037;-73
2023/06/19 05:53:46;;;;;;;3.55;1.80;;;20.70;96.30;;;;;;4981994;28;20447;-73
2023/06/19 05:56:12;;;;;;;3.78;1.50;;;20.70;96.40;;;;;;4983679;28;20126;-73
2023/06/19 05:58:39;;;;;;;4.82;1.67;;;20.70;96.50;;;;;;5001891;28;20068;-73
2023/06/19 06:01:04;;;;;;;3.17;1.60;;;20.70;96.70;;;;;;4982986;28;20484;-73
2023/06/19 06:03:30;;;;;;;4.40;1.90;;;20.80;96.80;;;;;;5005010;28;20042;-73
2023/06/19 06:06:02;;;;;;;3.95;1.95;;;20.90;96.90;;;;;;5001428;28;20514;-73
2023/06/19 06:08:29;;;;;;;3.38;1.77;;;20.90;96.90;;;;;;4997893;28;20037;-73
2023/06/19 06:10:54;;;;;;;4.30;2.00;;;20.90;97.00;;;;;;4998457;28;20034;-73
2023/06/19 06:13:20;;;;;;;3.70;1.90;;;21.00;97.10;;;;;;5001407;28;21520;-72
2023/06/19 06:15:46;;;;;;;5.20;2.03;;;20.90;97.10;;;;;;5003082;28;20499;-73
2023/06/19 06:18:11;;;;;;;3.80;1.83;;;20.90;97.20;;;;;;4989579;28;20518;-73
2023/06/19 06:20:37;;;;;;;3.30;1.80;;;20.90;97.30;;;;;;5001467;28;20045;-72
2023/06/19 06:23:03;;;;;;;4.68;2.03;;;21.00;97.50;;;;;;4987780;28;20042;-73
2023/06/19 06:25:29;;;;;;;3.85;1.88;;;21.00;97.50;;;;;;5013480;28;20091;-73
2023/06/19 06:27:54;;;;;;;3.95;1.92;;;21.10;97.50;;;;;;5023879;28;20392;-73
2023/06/19 06:30:20;;;;;;;3.38;1.70;;;21.10;97.50;;;;;;5014490;28;20103;-73
2023/06/19 06:32:45;;;;;;;2.78;1.70;;;21.10;97.50;;;;;;5013804;28;20025;-73
2023/06/19 06:35:11;;;;;;;3.28;1.80;;;21.10;97.60;;;;;;5019862;28;20030;-73
2023/06/19 06:37:37;;;;;;;3.40;1.90;;;21.00;97.80;;;;;;5021450;28;20037;-73
2023/06/19 06:40:07;;;;;;;3.40;1.80;;;21.10;97.80;;;;;;5021915;28;20753;-73
2023/06/19 06:42:33;;;;;;;5.57;1.90;;;21.00;97.90;;;;;;5019922;28;20045;-73
2023/06/19 06:44:59;;;;;;;4.32;2.28;;;21.00;98.00;;;;;;5005604;28;20486;-74
2023/06/19 06:47:25;;;;;;;6.30;2.28;;;20.90;98.10;;;;;;5021713;28;20786;-73
2023/06/19 06:49:50;;;;;;;3.65;1.98;;;20.90;98.30;;;;;;5022679;28;20157;-73
2023/06/19 06:52:16;;;;;;;4.88;2.55;;;20.80;98.40;;;;;;5018645;28;20045;-73
2023/06/19 06:54:41;;;;;;;5.10;2.70;;;20.80;98.50;;;;;;5021416;28;20026;-73
2023/06/19 06:57:08;;;;;;;6.05;2.67;;;20.80;98.60;;;;;;5016150;28;20475;-73
2023/06/19 06:59:33;;;;;;;6.78;3.30;;;20.80;98.80;;;;;;5021790;28;20068;-74
2023/06/19 07:01:59;;;;;;;5.40;3.00;;;20.80;98.80;;;;;;5020091;28;20119;-73
2023/06/19 07:04:25;;;;;;;6.85;3.50;;;20.90;99.00;;;;;;5022857;28;20049;-74
2023/06/19 07:06:51;;;;;;;8.30;3.58;;;20.90;99.00;;;;;;5017246;28;20049;-74
2023/06/19 07:09:17;;;;;;;7.68;4.38;;;20.90;99.10;;;;;;5022532;28;20064;-74
2023/06/19 07:11:43;;;;;;;7.45;3.72;;;20.90;99.20;;;;;;5022461;28;20033;-73
2023/06/19 07:14:08;;;;;;;9.63;4.13;;;20.80;99.20;;;;;;5020108;28;20036;-73
2023/06/19 07:16:34;;;;;;;9.20;4.00;;;20.80;99.30;;;;;;5022766;28;20037;-73
2023/06/19 07:18:59;;;;;;;8.57;3.85;;;20.80;99.40;;;;;;5020976;28;20248;-73
2023/06/19 07:21:27;;;;;;;7.25;3.63;;;20.70;99.50;;;;;;5015978;28;20046;-73
2023/06/19 07:23:53;;;;;;;6.68;3.30;;;20.70;99.60;;;;;;5004629;28;20049;-73
2023/06/19 07:26:19;;;;;;;7.03;3.70;;;20.70;99.60;;;;;;5008857;28;20045;-73
2023/06/19 07:28:44;;;;;;;7.60;3.20;;;20.70;99.60;;;;;;5005717;28;20525;-74
2023/06/19 07:31:10;;;;;;;4.75;2.72;;;20.70;99.70;;;;;;5021621;28;20080;-73
2023/06/19 07:33:35;;;;;;;6.47;3.30;;;20.70;99.70;;;;;;5018457;28;20033;-74
2023/06/19 07:36:04;;;;;;;4.15;3.03;;;20.70;99.70;;;;;;5006999;28;20106;-74
2023/06/19 07:38:30;;;;;;;5.18;2.83;;;20.70;99.70;;;;;;5022970;28;20032;-74
2023/06/19 07:40:55;;;;;;;4.18;2.10;;;20.70;99.70;;;;;;5024439;28;20391;-73
2023/06/19 07:43:24;;;;;;;3.80;2.20;;;20.70;99.70;;;;;;5005825;28;20120;-73
2023/06/19 07:45:49;;;;;;;3.55;2.13;;;20.70;99.70;;;;;;5036194;28;20045;-73
2023/06/19 07:48:15;;;;;;;3.67;2.03;;;20.80;99.70;;;;;;5023627;28;20044;-73
2023/06/19 07:50:41;;;;;;;3.40;1.92;;;20.70;99.70;;;;;;5006917;28;20530;-73
2023/06/19 07:53:06;;;;;;;5.35;1.63;;;20.70;99.70;;;;;;5025476;28;20434;-73
2023/06/19 07:55:32;;;;;;;3.55;1.65;;;20.70;99.70;;;;;;5024657;28;20416;-73
2023/06/19 07:57:58;;;;;;;4.25;2.00;;;20.70;99.70;;;;;;5041899;28;20033;-73
2023/06/19 08:00:24;;;;;;;3.03;1.95;;;20.70;99.70;;;;;;5026904;28;20040;-74
2023/06/19 08:02:50;;;;;;;3.53;2.00;;;20.70;99.70;;;;;;5025532;28;20037;-72
2023/06/19 08:05:16;;;;;;;4.90;2.10;;;20.60;99.70;;;;;;5011593;28;20041;-73
2023/06/19 08:07:41;;;;;;;4.05;1.98;;;20.60;99.80;;;;;;5005632;28;20040;-74
2023/06/19 08:10:07;;;;;;;3.22;1.77;;;20.60;99.90;;;;;;5022618;28;20048;-73
2023/06/19 08:12:33;;;;;;;3.90;1.67;;;20.50;99.90;;;;;;5038767;28;20043;-73
2023/06/19 08:14:58;;;;;;;3.00;1.58;;;20.50;99.90;;;;;;5020409;28;20037;-73
2023/06/19 08:17:24;;;;;;;2.60;1.40;;;20.50;99.90;;;;;;5046431;28;20094;-73
2023/06/19 08:19:50;;;;;;;3.95;1.60;;;20.50;99.90;;;;;;5030866;28;20047;-74
2023/06/19 08:22:15;;;;;;;3.33;1.55;;;20.50;99.90;;;;;;5021611;28;20040;-73
2023/06/19 08:24:44;;;;;;;3.28;1.75;;;20.60;99.90;;;;;;5040828;28;20130;-73
2023/06/19 08:27:10;;;;;;;2.78;1.85;;;20.60;99.90;;;;;;5028200;28;20106;-74
2023/06/19 08:29:35;;;;;;;2.85;1.80;;;20.70;99.90;;;;;;5024044;28;20033;-73
2023/06/19 08:32:01;;;;;;;3.90;2.40;;;20.70;99.80;;;;;;5023609;28;20051;-73
2023/06/19 08:34:27;;;;;;;6.55;3.00;;;20.70;99.80;;;;;;5027871;28;20048;-73
2023/06/19 08:36:53;;;;;;;4.28;2.80;;;20.70;99.70;;;;;;5021574;28;21437;-73
2023/06/19 08:39:22;;;;;;;5.57;2.92;;;20.70;99.60;;;;;;5022801;28;20080;-73
2023/06/19 08:41:47;;;;;;;7.30;3.63;;;20.70;99.50;;;;;;5039798;28;20041;-74
2023/06/19 08:44:13;;;;;;;5.50;3.67;;;20.70;99.40;;;;;;5007911;28;20394;-73
2023/06/19 08:46:40;;;;;;;6.35;3.13;;;20.60;99.30;;;;;;5041899;28;20048;-72
2023/06/19 08:49:10;;;;;;;6.03;3.40;;;20.60;99.30;;;;;;5017031;28;20044;-73
2023/06/19 08:51:36;;;;;;;7.65;3.30;;;20.60;99.20;;;;;;5003945;28;20029;-73
2023/06/19 08:54:06;;;;;;;5.20;3.10;;;20.60;99.20;;;;;;5024637;28;20060;-73
2023/06/19 08:56:34;;;;;;;4.30;2.72;;;20.60;99.10;;;;;;5011555;28;20032;-73
2023/06/19 08:59:13;;;;;;;4.10;2.60;;;20.60;99.10;;;;;;5008991;28;20052;-73
2023/06/19 09:01:39;;;;;;;5.43;2.90;;;20.60;99.10;;;;;;5025268;28;20043;-73
2023/06/19 09:04:13;;;;;;;5.07;2.72;;;20.60;99.00;;;;;;5027297;28;20066;-72
2023/06/19 09:06:56;;;;;;;3.80;2.53;;;20.60;99.00;;;;;;5045136;28;20107;-73
2023/06/19 09:09:23;;;;;;;4.32;2.85;;;20.60;99.00;;;;;;5007898;28;20119;-73
2023/06/19 09:12:03;;;;;;;4.53;3.00;;;20.60;99.00;;;;;;5043970;28;20045;-72
2023/06/19 09:14:39;;;;;;;4.35;2.30;;;20.60;99.00;;;;;;5011288;28;20456;-73
2023/06/19 09:17:10;;;;;;;3.88;2.70;;;20.50;99.00;;;;;;5046581;28;20505;-73
2023/06/19 09:19:36;;;;;;;5.18;2.45;;;20.50;99.00;;;;;;5027846;28;20052;-72
2023/06/19 09:22:04;;;;;;;4.70;2.60;;;20.60;99.00;;;;;;5039305;28;20045;-73
2023/06/19 09:24:40;;;;;;;3.83;2.15;;;20.60;99.00;;;;;;5026627;28;20087;-73
2023/06/19 09:27:18;;;;;;;4.75;2.45;;;20.80;99.00;;;;;;5021839;28;20048;-73
2023/06/19 09:29:47;;;;;;;5.68;2.83;;;20.80;99.10;;;;;;5020564;28;20509;-73
2023/06/19 09:32:20;;;;;;;5.43;2.40;;;21.00;98.80;;;;;;5022805;28;20055;-73
2023/06/19 09:34:47;;;;;;;3.72;2.15;;;21.20;98.70;;;;;;5017942;28;20455;-74
2023/06/19 09:37:13;;;;;;;3.97;2.45;;;21.20;98.50;;;;;;5021091;28;20029;-73
2023/06/19 09:39:40;;;;;;;5.60;2.80;;;21.20;98.50;;;;;;5009268;28;20063;-73
2023/06/19 09:42:09;;;;;;;4.65;2.50;;;21.20;98.40;;;;;;5024186;28;20037;-72
2023/06/19 09:44:42;;;;;;;6.28;2.47;;;21.20;98.50;;;;;;5022474;28;20497;-73
2023/06/19 09:47:46;;;;;;;4.80;2.70;;;21.20;98.40;;;;;;5025213;28;20040;-73
2023/06/19 09:50:14;;;;;;;6.57;3.22;;;21.30;98.50;;;;;;5027790;28;20044;-73
2023/06/19 09:52:43;;;;;;;7.07;3.22;;;21.40;98.30;;;;;;5049158;28;20029;-73
2023/06/19 09:55:13;;;;;;;5.47;2.97;;;21.40;98.20;;;;;;5005755;28;20041;-73
2023/06/19 09:57:39;;;;;;;5.18;3.22;;;21.40;98.20;;;;;;5023908;28;20029;-73
2023/06/19 10:00:11;;;;;;;6.88;3.85;;;21.40;98.30;;;;;;5024531;28;21934;-72
2023/06/19 10:02:38;;;;;;;7.28;3.97;;;21.40;98.20;;;;;;5047035;28;20045;-73
2023/06/19 10:05:04;;;;;;;7.05;4.07;;;21.40;98.10;;;;;;5011493;28;20041;-73
2023/06/19 10:07:35;;;;;;;6.53;3.53;;;21.40;98.00;;;;;;5032456;28;20080;-73
2023/06/19 10:10:12;;;;;;;7.13;3.58;;;21.40;98.00;;;;;;5048424;28;20033;-72
2023/06/19 10:12:45;;;;;;;6.72;3.53;;;21.50;97.90;;;;;;5025635;28;20060;-72
2023/06/19 10:15:29;;;;;;;9.02;3.88;;;21.50;97.90;;;;;;5024392;28;20068;-73
2023/06/19 10:18:05;;;;;;;7.68;3.92;;;21.60;97.50;;;;;;5045498;28;20037;-73
2023/06/19 10:20:37;;;;;;;6.32;3.80;;;21.60;97.40;;;;;;5036372;28;20045;-74
2023/06/19 10:23:13;;;;;;;7.50;3.88;;;21.70;97.30;;;;;;5022838;28;20041;-74
2023/06/19 10:25:43;;;;;;;7.38;3.83;;;21.60;97.20;;;;;;5028322;28;20064;-74
2023/06/19 10:28:31;;;;;;;6.25;3.60;;;21.60;97.20;;;;;;5024428;28;20434;-74
2023/06/19 10:30:57;;;;;;;6.80;3.75;;;21.60;97.00;;;;;;5022811;28;20041;-74
2023/06/19 10:33:28;;;;;;;7.40;3.90;;;21.60;97.20;;;;;;5026638;28;20047;-74
2023/06/19 10:35:54;;;;;;;7.25;4.18;;;21.70;97.10;;;;;;5025427;28;20398;-74
2023/06/19 10:38:20;;;;;;;7.90;4.03;;;21.80;97.00;;;;;;5027737;28;20118;-72
2023/06/19 10:40:46;;;;;;;8.68;4.10;;;21.80;96.90;;;;;;5026613;28;20613;-72
2023/06/19 10:43:18;;;;;;;8.27;4.00;;;21.70;96.80;;;;;;5028918;28;20033;-72
2023/06/19 10:45:44;;;;;;;6.78;3.83;;;21.70;96.70;;;;;;5044362;28;20497;-73
2023/06/19 10:48:10;;;;;;;8.90;3.88;;;21.70;96.70;;;;;;5045063;28;20131;-73
2023/06/19 10:50:41;;;;;;;7.00;3.67;;;21.70;96.80;;;;;;5027711;28;20040;-73
2023/06/19 10:53:07;;;;;;;7.80;3.72;;;21.80;96.80;;;;;;5025993;28;20402;-73
2023/06/19 10:55:33;;;;;;;7.05;3.83;;;21.80;96.60;;;;;;5012630;28;20034;-73
2023/06/19 10:57:58;;;;;;;7.47;4.10;;;21.80;96.40;;;;;;5044160;28;20045;-72
2023/06/19 11:00:29;;;;;;;6.22;3.40;;;21.90;96.40;;;;;;5022076;28;20128;-72
2023/06/19 11:02:56;;;;;;;5.72;3.10;;;21.90;96.20;;;;;;5026833;28;20032;-72
2023/06/19 11:05:24;;;;;;;5.88;2.90;;;22.00;96.50;;;;;;5027930;28;20528;-72
2023/06/19 11:07:59;;;;;;;5.93;3.05;;;22.00;96.20;;;;;;5020538;28;20075;-73
2023/06/19 11:10:27;;;;;;;4.97;2.70;;;22.00;96.00;;;;;;5025697;28;20044;-73
2023/06/19 11:12:57;;;;;;;6.25;2.95;;;22.00;96.00;;;;;;5026907;28;20099;-72
2023/06/19 11:15:33;;;;;;;6.00;2.88;;;22.10;96.10;;;;;;5023553;28;20402;-72
2023/06/19 11:18:02;;;;;;;6.68;2.95;;;22.10;95.80;;;;;;5043785;28;20134;-72
2023/06/19 11:20:28;;;;;;;5.80;3.10;;;22.10;95.80;;;;;;5020125;28;20044;-73
2023/06/19 11:22:59;;;;;;;5.63;3.20;;;22.20;95.70;;;;;;5024701;28;20033;-73
2023/06/19 11:25:35;;;;;;;7.20;3.50;;;22.30;95.60;;;;;;5036592;28;20053;-73
2023/06/19 11:28:01;;;;;;;7.80;4.03;;;22.40;95.30;;;;;;5044651;28;20053;-73
2023/06/19 11:30:33;;;;;;;7.28;3.38;;;22.30;95.20;;;;;;5023325;28;20104;-72
2023/06/19 11:33:00;;;;;;;6.10;3.58;;;22.30;95.20;;;;;;5026761;28;20098;-72
2023/06/19 11:35:34;;;;;;;6.28;3.55;;;22.40;95.30;;;;;;5024159;28;20121;-73
2023/06/19 11:37:59;;;;;;;6.30;3.50;;;22.40;95.10;;;;;;5025163;28;20036;-72
2023/06/19 11:40:25;;;;;;;7.40;3.15;;;22.40;95.10;;;;;;5022582;28;20047;-73
2023/06/19 11:42:54;;;;;;;5.93;3.47;;;22.40;95.10;;;;;;5010379;28;20036;-73
2023/06/19 11:45:20;;;;;;;6.28;3.55;;;22.50;94.90;;;;;;5043303;28;20037;-72
2023/06/19 11:47:47;;;;;;;6.72;3.58;;;22.50;94.70;;;;;;5028530;28;20029;-73
2023/06/19 11:50:15;;;;;;;5.75;3.42;;;22.60;94.70;;;;;;5023876;28;20044;-72
2023/06/19 11:52:42;;;;;;;6.25;2.95;;;22.60;94.40;;;;;;5009707;28;20040;-73
2023/06/19 11:55:08;;;;;;;7.10;3.28;;;22.60;94.10;;;;;;5028974;28;20074;-73
2023/06/19 11:57:34;;;;;;;7.43;3.75;;;22.70;94.00;;;;;;5028245;28;20070;-72
2023/06/19 12:00:00;;;;;;;8.38;4.00;;;22.80;93.90;;;;;;5011979;28;20379;-73
2023/06/19 12:02:26;;;;;;;5.30;3.10;;;22.70;93.60;;;;;;5026334;28;20044;-73
2023/06/19 12:04:52;;;;;;;5.25;2.80;;;22.80;93.50;;;;;;5028358;28;20056;-73
2023/06/19 12:07:18;;;;;;;10.52;4.50;;;22.70;93.40;;;;;;5025610;28;20045;-73
2023/06/19 12:09:43;;;;;;;6.82;4.00;;;22.70;93.30;;;;;;5026929;28;20029;-73
2023/06/19 12:12:09;;;;;;;6.95;3.97;;;22.80;93.30;;;;;;5027007;28;20072;-73
2023/06/19 12:14:35;;;;;;;8.93;4.15;;;22.70;93.20;;;;;;5028760;28;20041;-73
2023/06/19 12:17:00;;;;;;;7.35;3.78;;;22.70;93.10;;;;;;5027791;28;20402;-72
2023/06/19 12:19:27;;;;;;;8.55;4.10;;;22.70;93.30;;;;;;5027794;28;20490;-73
2023/06/19 12:21:53;;;;;;;7.65;3.80;;;22.70;93.40;;;;;;5021422;28;20044;-73
2023/06/19 12:24:19;;;;;;;6.38;3.65;;;22.80;93.40;;;;;;5014290;28;20053;-73
2023/06/19 12:26:44;;;;;;;9.57;3.88;;;22.80;93.10;;;;;;5031953;28;20041;-72
2023/06/19 12:29:10;;;;;;;7.70;3.40;;;22.70;93.00;;;;;;5029319;28;20050;-73
2023/06/19 12:31:36;;;;;;;7.07;3.95;;;22.70;93.00;;;;;;5054237;28;20045;-73
2023/06/19 12:34:03;;;;;;;8.68;3.70;;;22.70;93.00;;;;;;5027675;28;20035;-73
2023/06/19 12:36:31;;;;;;;7.68;3.97;;;22.70;93.00;;;;;;5027510;28;20124;-73
2023/06/19 12:38:58;;;;;;;8.00;3.47;;;22.70;92.80;;;;;;5007274;28;20033;-72
2023/06/19 12:41:23;;;;;;;6.60;4.00;;;22.70;92.70;;;;;;5026773;28;20047;-73
2023/06/19 12:43:49;;;;;;;7.88;4.22;;;22.60;92.70;;;;;;5043146;28;20143;-72
2023/06/19 12:46:15;;;;;;;8.07;3.72;;;22.60;92.70;;;;;;5010144;28;20033;-72
2023/06/19 12:48:41;;;;;;;6.25;3.75;;;22.60;93.00;;;;;;5011177;28;20036;-72